Time;durP1;ratioP1;P1;durP2;ratioP2;P2;SDS_P1;SDS_P2;PMS_P1;PMS_P2;Temp;Humidity;BMP_temperature;BMP_pressure;BME280_temperature;BME280_humidity;BME280_pressure;Samples;Min_cycle;Max_cycle;Signal;HPM_P1;HPM_P2
2022/09/12 00:00:49;;;;;;;4.65;1.50;;;11.40;99.90;;;;;;5035733;28;20504;-74
2022/09/12 00:03:15;;;;;;;3.47;1.48;;;11.40;99.90;;;;;;5034142;28;20091;-74
2022/09/12 00:05:46;;;;;;;3.40;1.65;;;11.50;99.90;;;;;;5034415;28;20061;-74
2022/09/12 00:08:12;;;;;;;2.60;1.52;;;11.50;99.90;;;;;;5036056;28;20080;-74
2022/09/12 00:10:39;;;;;;;2.13;1.40;;;11.50;99.90;;;;;;5036022;28;20040;-74
2022/09/12 00:13:06;;;;;;;1.50;1.00;;;11.50;99.90;;;;;;5035797;28;20021;-74
2022/09/12 00:15:36;;;;;;;2.67;1.52;;;11.50;99.90;;;;;;5035530;28;20037;-75
2022/09/12 00:18:02;;;;;;;3.08;1.48;;;11.50;99.90;;;;;;5035795;28;20017;-75
2022/09/12 00:20:27;;;;;;;2.80;1.90;;;11.50;99.90;;;;;;5034711;28;20397;-74
2022/09/12 00:22:53;;;;;;;3.25;2.00;;;11.50;99.90;;;;;;5035320;28;20029;-74
2022/09/12 00:25:18;;;;;;;3.03;2.42;;;11.60;99.90;;;;;;5035327;28;20026;-74
2022/09/12 00:27:44;;;;;;;5.28;3.03;;;11.60;99.90;;;;;;5035252;28;20080;-74
2022/09/12 00:30:10;;;;;;;4.82;3.40;;;11.50;99.90;;;;;;5035086;28;20029;-75
2022/09/12 00:32:36;;;;;;;6.35;3.72;;;11.50;99.90;;;;;;5035169;28;20049;-74
2022/09/12 00:35:02;;;;;;;4.80;3.15;;;11.50;99.90;;;;;;5033948;28;20021;-75
2022/09/12 00:37:27;;;;;;;5.35;3.00;;;11.50;99.90;;;;;;5035606;28;20033;-75
2022/09/12 00:39:53;;;;;;;5.50;3.55;;;11.50;99.90;;;;;;5034973;28;20079;-75
2022/09/12 00:42:19;;;;;;;5.95;4.07;;;11.50;99.90;;;;;;5035159;28;20034;-74
2022/09/12 00:44:48;;;;;;;5.15;3.92;;;11.50;99.90;;;;;;5035194;28;20029;-75
2022/09/12 00:47:29;;;;;;;6.25;3.53;;;11.40;99.90;;;;;;5034843;28;20111;-74
2022/09/12 00:50:04;;;;;;;;;;;11.40;99.90;;;;;;5035166;28;20022;-75
2022/09/12 00:52:36;;;;;;;5.00;3.17;;;11.40;99.90;;;;;;5034687;28;19905;-74
2022/09/12 00:55:12;;;;;;;4.40;3.17;;;11.40;99.90;;;;;;5033453;28;20017;-75
2022/09/12 00:58:32;;;;;;;5.18;3.58;;;11.40;99.90;;;;;;5034933;28;20025;-75
2022/09/12 01:00:58;;;;;;;5.13;3.47;;;11.40;99.90;;;;;;4996172;28;20506;-75
2022/09/12 01:03:24;;;;;;;4.55;3.25;;;11.40;99.90;;;;;;5025126;28;20046;-75
2022/09/12 01:06:13;;;;;;;7.75;4.47;;;11.40;99.90;;;;;;5035047;28;20040;-75
2022/09/12 01:08:40;;;;;;;4.75;3.67;;;11.40;99.90;;;;;;5034876;28;20415;-74
2022/09/12 01:11:08;;;;;;;4.20;3.20;;;11.40;99.90;;;;;;5034251;28;20029;-74
2022/09/12 01:13:35;;;;;;;5.97;4.25;;;11.40;99.90;;;;;;5033049;28;20045;-74
2022/09/12 01:16:04;;;;;;;5.80;4.15;;;11.40;99.90;;;;;;5033619;28;20044;-74
2022/09/12 01:18:36;;;;;;;6.07;3.40;;;11.40;99.90;;;;;;5034273;28;20516;-75
2022/09/12 01:21:23;;;;;;;5.22;3.65;;;11.30;99.90;;;;;;5034186;28;20474;-74
2022/09/12 01:24:19;;;;;;;4.80;3.28;;;11.30;99.90;;;;;;5034169;28;20032;-74
2022/09/12 01:27:02;;;;;;;4.40;3.00;;;11.40;99.90;;;;;;5034935;28;20500;-74
2022/09/12 01:29:43;;;;;;;6.03;3.10;;;11.40;99.90;;;;;;5034064;28;20040;-74
2022/09/12 01:32:24;;;;;;;3.20;2.58;;;11.40;99.90;;;;;;5034003;28;20026;-73
2022/09/12 01:35:21;;;;;;;4.72;2.55;;;11.50;99.90;;;;;;5034069;28;20100;-74
2022/09/12 01:38:19;;;;;;;3.20;2.40;;;11.50;99.90;;;;;;5033195;28;20485;-75
2022/09/12 01:40:58;;;;;;;4.68;2.58;;;11.50;99.90;;;;;;5033888;28;20476;-74
2022/09/12 01:43:34;;;;;;;4.88;2.88;;;11.50;99.90;;;;;;5033900;28;20425;-74
2022/09/12 01:46:12;;;;;;;5.30;3.10;;;11.50;99.90;;;;;;5032603;28;20489;-74
2022/09/12 01:48:46;;;;;;;5.72;3.10;;;11.50;99.90;;;;;;5033777;28;20033;-74
2022/09/12 01:51:25;;;;;;;5.40;4.00;;;11.50;99.90;;;;;;5034197;28;20029;-73
2022/09/12 01:53:56;;;;;;;5.07;3.42;;;11.50;99.90;;;;;;5034297;28;20025;-74
2022/09/12 01:56:25;;;;;;;4.90;3.13;;;11.40;99.90;;;;;;5032384;28;20436;-74
2022/09/12 01:59:29;;;;;;;4.70;3.35;;;11.40;99.90;;;;;;5033895;28;20442;-75
2022/09/12 02:02:15;;;;;;;4.00;3.05;;;11.40;99.90;;;;;;5032306;28;20077;-74
2022/09/12 02:05:00;;;;;;;4.38;3.42;;;11.40;99.90;;;;;;5033841;28;20021;-75
2022/09/12 02:07:32;;;;;;;4.32;3.17;;;11.40;99.90;;;;;;5033531;28;20037;-75
2022/09/12 02:10:28;;;;;;;6.13;3.70;;;11.30;99.90;;;;;;5033655;28;20474;-74
2022/09/12 02:13:07;;;;;;;5.72;4.18;;;11.30;99.90;;;;;;5033748;28;20022;-74
2022/09/12 02:15:42;;;;;;;5.70;3.80;;;11.30;99.90;;;;;;5033719;28;20029;-74
2022/09/12 02:18:13;;;;;;;4.63;3.33;;;11.20;99.90;;;;;;5033970;28;20018;-75
2022/09/12 02:20:40;;;;;;;;;;;11.20;99.90;;;;;;5034185;28;20022;-74
2022/09/12 02:23:11;;;;;;;5.55;3.75;;;11.20;99.90;;;;;;5033625;28;19966;-74
2022/09/12 02:25:38;;;;;;;;;;;11.10;99.90;;;;;;5033799;28;20480;-74
2022/09/12 02:28:11;;;;;;;5.90;3.60;;;11.10;99.90;;;;;;5037085;28;20462;-74
2022/09/12 02:30:47;;;;;;;6.18;3.92;;;11.10;99.90;;;;;;5037606;28;20473;-73
2022/09/12 02:33:30;;;;;;;5.10;3.53;;;11.00;99.90;;;;;;5037694;28;20083;-74
2022/09/12 02:36:31;;;;;;;5.45;4.00;;;11.00;99.90;;;;;;5037347;28;20013;-74
2022/09/12 02:38:57;;;;;;;6.68;3.85;;;10.90;99.90;;;;;;5032639;28;20100;-74
2022/09/12 02:41:23;;;;;;;6.20;3.80;;;10.80;99.90;;;;;;5037143;28;20041;-73
2022/09/12 02:43:52;;;;;;;4.82;3.50;;;10.80;99.90;;;;;;5037465;28;20087;-74
2022/09/12 02:46:25;;;;;;;4.85;3.33;;;10.80;99.90;;;;;;5037457;28;20044;-74
2022/09/12 02:48:51;;;;;;;5.43;3.75;;;10.80;99.90;;;;;;5037438;28;20045;-75
2022/09/12 02:51:17;;;;;;;5.13;3.33;;;10.80;99.90;;;;;;5035603;28;20030;-73
2022/09/12 02:53:43;;;;;;;5.20;3.92;;;10.80;99.90;;;;;;5037248;28;20029;-75
2022/09/12 02:56:17;;;;;;;4.65;3.20;;;10.80;99.90;;;;;;5036962;28;20053;-75
2022/09/12 02:58:43;;;;;;;4.47;3.13;;;10.80;99.90;;;;;;5037514;28;20021;-75
2022/09/12 03:01:15;;;;;;;3.70;2.70;;;10.80;99.90;;;;;;5036711;28;20057;-75
2022/09/12 03:04:11;;;;;;;3.90;2.97;;;10.90;99.90;;;;;;5036885;28;20474;-75
2022/09/12 03:07:12;;;;;;;3.78;2.20;;;10.90;99.90;;;;;;5036769;28;20056;-75
2022/09/12 03:09:57;;;;;;;3.53;2.50;;;10.90;99.90;;;;;;5036691;28;20025;-75
2022/09/12 03:12:40;;;;;;;4.65;2.70;;;10.80;99.90;;;;;;5037239;28;20057;-74
2022/09/12 03:15:26;;;;;;;4.65;2.85;;;10.80;99.90;;;;;;5036903;28;20099;-74
2022/09/12 03:17:54;;;;;;;3.78;2.80;;;10.80;99.90;;;;;;5036860;28;20034;-74
2022/09/12 03:20:32;;;;;;;4.00;2.65;;;10.70;99.90;;;;;;5036409;28;20021;-75
2022/09/12 03:23:07;;;;;;;3.22;2.35;;;10.70;99.90;;;;;;5036512;28;20041;-75
2022/09/12 03:25:43;;;;;;;4.65;2.50;;;10.70;99.90;;;;;;5035226;28;20032;-74
2022/09/12 03:28:12;;;;;;;3.70;2.50;;;10.70;99.90;;;;;;5036695;28;20025;-75
2022/09/12 03:30:43;;;;;;;4.97;2.50;;;10.70;99.90;;;;;;5034974;28;20059;-75
2022/09/12 03:33:15;;;;;;;4.22;2.30;;;10.70;99.90;;;;;;5036324;28;20160;-75
2022/09/12 03:35:40;;;;;;;3.67;2.10;;;10.80;99.90;;;;;;5036248;28;20044;-74
2022/09/12 03:38:09;;;;;;;3.60;2.40;;;10.80;99.90;;;;;;5035117;28;20029;-75
2022/09/12 03:40:36;;;;;;;2.90;2.10;;;10.80;99.90;;;;;;5036053;28;20033;-75
2022/09/12 03:43:03;;;;;;;3.08;2.28;;;10.80;99.90;;;;;;5036128;28;20030;-75
2022/09/12 03:45:29;;;;;;;2.95;2.17;;;10.80;99.90;;;;;;5036097;28;20025;-74
2022/09/12 03:47:55;;;;;;;3.40;2.40;;;10.80;99.90;;;;;;5035997;28;20108;-75
2022/09/12 03:50:21;;;;;;;4.10;2.80;;;10.80;99.90;;;;;;5035827;28;20049;-74
2022/09/12 03:52:47;;;;;;;3.72;2.35;;;10.80;99.90;;;;;;5035256;28;20049;-74
2022/09/12 03:55:13;;;;;;;3.75;2.20;;;10.80;99.90;;;;;;5042560;28;20034;-74
2022/09/12 03:57:39;;;;;;;3.45;2.47;;;10.70;99.90;;;;;;5036088;28;20533;-74
2022/09/12 04:00:07;;;;;;;3.90;2.72;;;10.60;99.90;;;;;;5014392;28;20478;-73
2022/09/12 04:02:33;;;;;;;3.70;2.65;;;10.60;99.90;;;;;;5033174;28;20426;-74
2022/09/12 04:04:59;;;;;;;3.78;2.65;;;10.60;99.90;;;;;;5035990;28;20034;-74
2022/09/12 04:07:25;;;;;;;3.60;2.63;;;10.50;99.90;;;;;;5035900;28;20553;-74
2022/09/12 04:09:52;;;;;;;3.88;2.55;;;10.40;99.90;;;;;;5035784;28;20033;-74
2022/09/12 04:12:18;;;;;;;3.47;2.40;;;10.40;99.90;;;;;;5035811;28;20546;-74
2022/09/12 04:14:44;;;;;;;3.42;2.17;;;10.40;99.90;;;;;;5035023;28;20049;-73
2022/09/12 04:17:10;;;;;;;4.38;2.20;;;10.30;99.90;;;;;;5035578;28;20067;-74
2022/09/12 04:19:35;;;;;;;2.83;2.05;;;10.30;99.90;;;;;;5035748;28;20116;-73
2022/09/12 04:22:01;;;;;;;2.70;2.05;;;10.30;99.90;;;;;;5035618;28;20076;-74
2022/09/12 04:24:27;;;;;;;3.67;2.38;;;10.30;99.90;;;;;;5034432;28;20032;-74
2022/09/12 04:26:53;;;;;;;3.40;1.90;;;10.30;99.90;;;;;;5034356;28;20033;-74
2022/09/12 04:29:18;;;;;;;3.50;2.10;;;10.30;99.90;;;;;;5034679;28;20036;-74
2022/09/12 04:31:44;;;;;;;2.78;1.90;;;10.30;99.90;;;;;;5033236;28;20079;-74
2022/09/12 04:34:10;;;;;;;3.22;2.15;;;10.30;99.90;;;;;;5034495;28;20048;-74
2022/09/12 04:36:36;;;;;;;3.03;2.10;;;10.30;99.90;;;;;;5034452;28;20377;-74
2022/09/12 04:39:03;;;;;;;3.10;2.28;;;10.30;99.90;;;;;;5033570;28;20029;-74
2022/09/12 04:41:37;;;;;;;2.60;1.90;;;10.30;99.90;;;;;;5034982;28;20029;-74
2022/09/12 04:44:10;;;;;;;2.88;2.08;;;10.30;99.90;;;;;;5035031;28;20477;-75
2022/09/12 04:46:39;;;;;;;3.17;2.25;;;10.30;99.90;;;;;;5035509;28;20052;-75
2022/09/12 04:49:05;;;;;;;3.28;2.30;;;10.20;99.90;;;;;;5035058;28;20030;-75
2022/09/12 04:51:34;;;;;;;3.08;2.28;;;10.30;99.90;;;;;;5034745;28;20029;-74
2022/09/12 04:54:10;;;;;;;3.20;2.20;;;10.20;99.90;;;;;;5034840;28;20024;-75
2022/09/12 04:56:38;;;;;;;2.53;1.70;;;10.20;99.90;;;;;;5034733;28;20037;-75
2022/09/12 04:59:04;;;;;;;2.90;1.80;;;10.20;99.90;;;;;;5034667;28;20021;-74
2022/09/12 05:01:30;;;;;;;3.00;2.13;;;10.10;99.90;;;;;;5034947;28;20099;-74
2022/09/12 05:03:58;;;;;;;2.50;1.77;;;10.10;99.90;;;;;;5033360;28;20425;-74
2022/09/12 05:06:26;;;;;;;3.90;2.08;;;10.00;99.90;;;;;;5034598;28;20034;-74
2022/09/12 05:08:52;;;;;;;3.55;2.05;;;10.00;99.90;;;;;;5034759;28;20474;-74
2022/09/12 05:11:22;;;;;;;2.63;1.63;;;10.00;99.90;;;;;;5034356;28;20026;-74
2022/09/12 05:13:48;;;;;;;3.13;2.03;;;9.90;99.90;;;;;;5034444;28;20389;-74
2022/09/12 05:16:16;;;;;;;2.92;1.70;;;9.90;99.90;;;;;;5034934;28;20029;-74
2022/09/12 05:18:43;;;;;;;3.28;2.10;;;9.90;99.90;;;;;;5034336;28;20074;-74
2022/09/12 05:21:13;;;;;;;4.15;2.05;;;9.90;99.90;;;;;;5034481;28;20033;-74
2022/09/12 05:23:38;;;;;;;3.08;1.90;;;9.90;99.90;;;;;;5034577;28;20033;-75
2022/09/12 05:26:05;;;;;;;3.13;1.95;;;9.80;99.90;;;;;;5034151;28;20129;-75
2022/09/12 05:28:37;;;;;;;2.10;1.42;;;9.80;99.90;;;;;;5034428;28;20053;-74
2022/09/12 05:31:03;;;;;;;4.30;1.65;;;9.80;99.90;;;;;;5033997;28;20106;-74
2022/09/12 05:33:30;;;;;;;4.25;1.80;;;9.80;99.90;;;;;;5033990;28;20474;-75
2022/09/12 05:35:56;;;;;;;2.85;1.60;;;9.80;99.90;;;;;;5033969;28;20033;-74
2022/09/12 05:38:23;;;;;;;2.70;1.58;;;9.80;99.90;;;;;;5034051;28;20478;-75
2022/09/12 05:40:50;;;;;;;2.88;1.90;;;9.80;99.90;;;;;;5032618;28;20032;-74
2022/09/12 05:43:15;;;;;;;2.58;1.73;;;9.80;99.90;;;;;;5032600;28;20458;-74
2022/09/12 05:45:42;;;;;;;2.70;1.70;;;9.80;99.90;;;;;;5033861;28;20060;-75
2022/09/12 05:48:07;;;;;;;3.38;1.92;;;9.80;99.90;;;;;;5033792;28;20039;-75
2022/09/12 05:50:33;;;;;;;3.20;1.80;;;9.80;99.90;;;;;;5033669;28;20030;-75
2022/09/12 05:52:59;;;;;;;2.92;1.92;;;9.90;99.90;;;;;;5033703;28;20025;-75
2022/09/12 05:55:25;;;;;;;4.65;2.38;;;9.90;99.90;;;;;;5033985;28;20021;-74
2022/09/12 05:57:50;;;;;;;3.08;1.77;;;9.90;99.90;;;;;;5032395;28;20478;-75
2022/09/12 06:00:18;;;;;;;6.13;2.28;;;9.90;99.90;;;;;;5033865;28;20064;-74
2022/09/12 06:02:43;;;;;;;5.57;2.50;;;9.90;99.90;;;;;;5033069;28;20045;-75
2022/09/12 06:05:09;;;;;;;3.72;1.85;;;9.90;99.90;;;;;;5033896;28;20029;-75
2022/09/12 06:07:35;;;;;;;2.45;1.58;;;9.90;99.90;;;;;;5033783;28;20029;-74
2022/09/12 06:10:02;;;;;;;2.90;1.60;;;9.80;99.90;;;;;;5034378;28;20057;-74
2022/09/12 06:12:29;;;;;;;3.35;1.60;;;9.90;99.90;;;;;;5032178;28;20029;-74
2022/09/12 06:14:54;;;;;;;3.58;2.22;;;9.90;99.90;;;;;;5033446;28;20021;-74
2022/09/12 06:17:21;;;;;;;2.97;1.90;;;10.00;99.90;;;;;;5033684;28;20132;-75
2022/09/12 06:19:48;;;;;;;2.75;1.50;;;10.00;99.90;;;;;;5033372;28;20025;-75
2022/09/12 06:22:14;;;;;;;3.47;2.13;;;10.00;99.90;;;;;;5033269;28;20026;-74
2022/09/12 06:24:40;;;;;;;3.53;2.20;;;10.10;99.90;;;;;;5033348;28;20029;-75
2022/09/12 06:27:05;;;;;;;3.97;2.03;;;10.10;99.90;;;;;;5033255;28;20033;-75
2022/09/12 06:29:34;;;;;;;6.07;2.70;;;10.10;99.90;;;;;;5033213;28;20040;-75
2022/09/12 06:32:00;;;;;;;5.07;2.83;;;10.10;99.90;;;;;;5033164;28;20053;-75
2022/09/12 06:34:26;;;;;;;8.88;3.10;;;10.10;99.90;;;;;;5033466;28;20026;-75
2022/09/12 06:36:52;;;;;;;3.75;2.38;;;10.10;99.90;;;;;;5033183;28;20432;-75
2022/09/12 06:39:22;;;;;;;4.40;2.25;;;10.20;99.90;;;;;;5033211;28;20018;-74
2022/09/12 06:41:49;;;;;;;3.50;1.92;;;10.20;99.90;;;;;;5033401;28;20021;-74
2022/09/12 06:44:18;;;;;;;4.20;1.95;;;10.30;99.90;;;;;;5033355;28;20022;-74
2022/09/12 06:46:44;;;;;;;3.65;2.15;;;10.30;99.90;;;;;;5032099;28;20398;-74
2022/09/12 06:49:10;;;;;;;3.05;2.08;;;10.40;99.90;;;;;;5033329;28;20399;-74
2022/09/12 06:51:36;;;;;;;4.07;2.55;;;10.50;99.90;;;;;;5033147;28;20029;-74
2022/09/12 06:54:02;;;;;;;3.10;2.00;;;10.50;99.90;;;;;;5033022;28;20041;-74
2022/09/12 06:56:28;;;;;;;3.78;2.50;;;10.50;99.90;;;;;;5031914;28;20033;-75
2022/09/12 06:58:56;;;;;;;3.83;2.50;;;10.60;99.90;;;;;;5033001;28;20452;-74
2022/09/12 07:01:28;;;;;;;4.50;2.55;;;10.60;99.90;;;;;;5015110;28;20033;-74
2022/09/12 07:03:56;;;;;;;3.42;2.20;;;10.70;99.90;;;;;;5031842;28;20420;-74
2022/09/12 07:06:25;;;;;;;5.15;2.47;;;10.80;99.90;;;;;;5033256;28;20056;-74
2022/09/12 07:08:51;;;;;;;5.03;2.88;;;10.90;99.90;;;;;;5033220;28;20029;-74
2022/09/12 07:11:22;;;;;;;5.32;2.75;;;10.90;99.90;;;;;;5032784;28;20099;-74
2022/09/12 07:13:54;;;;;;;5.10;2.80;;;11.10;99.90;;;;;;5036272;28;20457;-74
2022/09/12 07:16:19;;;;;;;4.82;2.65;;;11.20;99.90;;;;;;5036974;28;20026;-74
2022/09/12 07:18:53;;;;;;;4.90;2.88;;;11.30;99.90;;;;;;5036590;28;20030;-74
2022/09/12 07:21:19;;;;;;;3.67;2.45;;;11.30;99.90;;;;;;5036668;28;20033;-74
2022/09/12 07:23:45;;;;;;;4.32;2.92;;;11.40;99.90;;;;;;5037031;28;20112;-74
2022/09/12 07:26:12;;;;;;;3.80;2.72;;;11.40;99.90;;;;;;5037504;28;20117;-73
2022/09/12 07:28:38;;;;;;;4.07;3.15;;;11.50;99.90;;;;;;5036445;28;20034;-75
2022/09/12 07:31:10;;;;;;;5.18;3.08;;;11.50;99.90;;;;;;5036234;28;20398;-75
2022/09/12 07:33:36;;;;;;;7.00;3.33;;;11.60;99.90;;;;;;5036354;28;20029;-75
2022/09/12 07:36:03;;;;;;;4.68;3.05;;;11.70;99.90;;;;;;5036282;28;20597;-74
2022/09/12 07:38:30;;;;;;;3.92;3.00;;;11.90;99.90;;;;;;5036255;28;20029;-75
2022/09/12 07:40:56;;;;;;;5.70;2.53;;;11.90;99.90;;;;;;5036333;28;20072;-74
2022/09/12 07:43:22;;;;;;;4.57;2.80;;;12.00;99.90;;;;;;5036156;28;20436;-76
2022/09/12 07:45:47;;;;;;;5.22;3.05;;;12.00;99.90;;;;;;5036079;28;20466;-75
2022/09/12 07:48:13;;;;;;;4.88;2.85;;;12.10;99.90;;;;;;5036588;28;20037;-75
2022/09/12 07:50:39;;;;;;;3.53;2.83;;;12.20;99.90;;;;;;5036119;28;20531;-74
2022/09/12 07:53:05;;;;;;;4.45;2.90;;;12.30;99.90;;;;;;5035969;28;20075;-75
2022/09/12 07:55:31;;;;;;;5.55;3.17;;;12.50;99.90;;;;;;5035924;28;20033;-75
2022/09/12 07:57:57;;;;;;;4.18;2.88;;;12.70;99.90;;;;;;5035865;28;20030;-75
2022/09/12 08:00:23;;;;;;;5.60;2.90;;;12.70;99.90;;;;;;5035813;28;20033;-75
2022/09/12 08:02:52;;;;;;;4.55;2.80;;;12.80;99.90;;;;;;5035727;28;20029;-75
2022/09/12 08:05:22;;;;;;;3.38;2.35;;;12.80;99.90;;;;;;5035999;28;20059;-75
2022/09/12 08:07:48;;;;;;;4.22;3.05;;;12.90;99.90;;;;;;5034514;28;20031;-75
2022/09/12 08:10:15;;;;;;;3.42;2.50;;;13.00;99.90;;;;;;5035456;28;20029;-75
2022/09/12 08:12:40;;;;;;;3.85;2.40;;;13.00;99.90;;;;;;5034303;28;20053;-75
2022/09/12 08:15:07;;;;;;;3.83;2.78;;;13.10;99.90;;;;;;5035517;28;20099;-75
2022/09/12 08:17:33;;;;;;;4.28;2.90;;;13.10;99.90;;;;;;5033908;28;20029;-74
2022/09/12 08:19:58;;;;;;;2.72;2.13;;;13.20;99.90;;;;;;5035461;28;20033;-75
2022/09/12 08:22:24;;;;;;;3.60;2.58;;;13.20;99.90;;;;;;5035350;28;20060;-75
2022/09/12 08:24:50;;;;;;;3.00;2.20;;;13.30;99.90;;;;;;5035344;28;20033;-75
2022/09/12 08:27:16;;;;;;;3.40;2.05;;;13.40;99.90;;;;;;5035539;28;20029;-75
2022/09/12 08:29:41;;;;;;;3.50;1.80;;;13.40;99.90;;;;;;5035234;28;20039;-76
2022/09/12 08:32:07;;;;;;;2.50;1.75;;;13.50;99.90;;;;;;5035178;28;20026;-76
2022/09/12 08:34:33;;;;;;;3.47;1.85;;;13.60;99.90;;;;;;5035262;28;20139;-75
2022/09/12 08:36:59;;;;;;;2.45;1.77;;;13.80;99.90;;;;;;5033880;28;20025;-74
2022/09/12 08:39:24;;;;;;;2.60;1.88;;;13.90;99.90;;;;;;5035417;28;20021;-75
2022/09/12 08:42:02;;;;;;;3.88;1.88;;;14.00;99.90;;;;;;5034867;28;20421;-75
2022/09/12 08:44:37;;;;;;;3.22;1.88;;;14.00;99.90;;;;;;5035470;28;20026;-75
2022/09/12 08:47:05;;;;;;;2.40;1.67;;;14.10;99.90;;;;;;5034941;28;20049;-75
2022/09/12 08:49:34;;;;;;;2.28;1.70;;;14.10;99.90;;;;;;5034815;28;20052;-75
2022/09/12 08:52:20;;;;;;;3.10;1.98;;;14.10;99.90;;;;;;5033525;28;20025;-75
2022/09/12 08:54:46;;;;;;;4.25;1.55;;;14.00;99.90;;;;;;5034827;28;20056;-76
2022/09/12 08:57:14;;;;;;;2.65;1.92;;;14.10;99.90;;;;;;5035154;28;20470;-75
2022/09/12 08:59:43;;;;;;;4.35;1.92;;;14.20;99.90;;;;;;5034756;28;20599;-76
2022/09/12 09:02:47;;;;;;;2.92;1.80;;;14.20;99.90;;;;;;5034631;28;20441;-76
2022/09/12 09:05:40;;;;;;;2.90;1.77;;;14.30;99.90;;;;;;5034461;28;20504;-76
2022/09/12 09:08:40;;;;;;;2.42;1.65;;;14.50;99.90;;;;;;5034585;28;20456;-76
2022/09/12 09:11:41;;;;;;;3.63;1.70;;;14.70;99.90;;;;;;5034642;28;20068;-75
2022/09/12 09:14:47;;;;;;;2.22;1.40;;;14.90;99.90;;;;;;5034900;28;20378;-76
2022/09/12 09:17:45;;;;;;;2.97;1.70;;;15.00;99.90;;;;;;5034731;28;20021;-75
2022/09/12 09:20:27;;;;;;;3.25;1.85;;;15.10;99.90;;;;;;5034482;28;20462;-75
2022/09/12 09:23:01;;;;;;;2.45;1.77;;;15.30;99.90;;;;;;5033062;28;20033;-75
2022/09/12 09:25:48;;;;;;;2.40;1.73;;;15.40;99.90;;;;;;5034390;28;20029;-76
2022/09/12 09:28:38;;;;;;;2.22;1.40;;;15.50;99.90;;;;;;5034477;28;20040;-76
2022/09/12 09:31:05;;;;;;;4.07;1.60;;;15.50;99.90;;;;;;5034398;28;20033;-76
2022/09/12 09:33:33;;;;;;;3.22;1.80;;;15.60;99.90;;;;;;5034394;28;20496;-76
2022/09/12 09:36:40;;;;;;;3.42;1.90;;;15.60;99.90;;;;;;5033284;28;20101;-76
2022/09/12 09:39:29;;;;;;;2.63;1.90;;;15.70;99.90;;;;;;5034199;28;20040;-76
2022/09/12 09:42:13;;;;;;;3.58;2.10;;;15.80;99.90;;;;;;5033696;28;20057;-76
2022/09/12 09:44:39;;;;;;;3.05;1.90;;;15.90;99.90;;;;;;5032927;28;20021;-76
2022/09/12 09:47:09;;;;;;;2.67;1.83;;;16.10;99.90;;;;;;5034479;28;20052;-76
2022/09/12 09:49:35;;;;;;;2.83;1.50;;;16.20;99.90;;;;;;5034001;28;20061;-76
2022/09/12 09:52:01;;;;;;;3.33;1.95;;;16.30;99.90;;;;;;5033629;28;20041;-76
2022/09/12 09:55:00;;;;;;;2.58;1.73;;;16.40;99.90;;;;;;5034025;28;20076;-76
2022/09/12 09:57:35;;;;;;;4.65;1.88;;;16.50;99.90;;;;;;5021411;28;20038;-76
2022/09/12 10:00:30;;;;;;;2.65;1.50;;;16.60;99.90;;;;;;5033766;28;20482;-76
2022/09/12 10:03:08;;;;;;;4.00;1.77;;;16.80;99.90;;;;;;5033384;28;20496;-76
2022/09/12 10:06:21;;;;;;;2.97;1.65;;;16.80;99.90;;;;;;5033661;28;20032;-76
2022/09/12 10:08:48;;;;;;;5.03;2.10;;;17.00;99.90;;;;;;5033380;28;20041;-75
2022/09/12 10:11:21;;;;;;;1.52;1.08;;;17.10;99.90;;;;;;5033683;28;20399;-76
2022/09/12 10:13:53;;;;;;;3.60;1.40;;;17.10;99.90;;;;;;5033495;28;20374;-76
2022/09/12 10:16:22;;;;;;;2.42;1.10;;;17.10;99.90;;;;;;5033623;28;20022;-76
2022/09/12 10:18:50;;;;;;;1.98;1.30;;;17.20;99.90;;;;;;5033913;28;20577;-76
2022/09/12 10:21:38;;;;;;;2.17;1.27;;;17.30;99.90;;;;;;5032323;28;20034;-76
2022/09/12 10:24:25;;;;;;;2.40;1.40;;;17.40;99.90;;;;;;5034335;28;20025;-76
2022/09/12 10:27:12;;;;;;;3.92;1.40;;;17.60;99.90;;;;;;5033830;28;20029;-77
2022/09/12 10:30:04;;;;;;;2.55;1.67;;;17.70;99.90;;;;;;5032493;28;20030;-76
2022/09/12 10:32:30;;;;;;;2.47;1.30;;;17.80;99.90;;;;;;5033577;28;20478;-77
2022/09/12 10:35:00;;;;;;;2.38;1.65;;;17.90;99.90;;;;;;5033515;28;20026;-76
2022/09/12 10:37:34;;;;;;;3.92;1.52;;;18.00;99.90;;;;;;5033908;28;20022;-76
2022/09/12 10:40:01;;;;;;;1.83;1.10;;;18.10;99.90;;;;;;5032618;28;20030;-76
2022/09/12 10:42:56;;;;;;;4.50;1.23;;;18.10;99.90;;;;;;5033474;28;20096;-77
2022/09/12 10:45:37;;;;;;;4.65;1.50;;;18.20;99.90;;;;;;5033608;28;20029;-78
2022/09/12 10:48:21;;;;;;;;;;;18.20;99.90;;;;;;5035322;28;20029;-76
2022/09/12 10:50:47;;;;;;;1.98;1.30;;;18.30;99.90;;;;;;5042689;28;19956;-77
2022/09/12 10:53:16;;;;;;;2.60;1.02;;;18.40;99.90;;;;;;5040126;28;20041;-77
2022/09/12 10:56:04;;;;;;;2.30;1.58;;;18.40;99.90;;;;;;5046563;28;20036;-77
2022/09/12 10:58:35;;;;;;;3.70;1.20;;;18.60;99.90;;;;;;5037819;28;20033;-77
2022/09/12 11:01:06;;;;;;;;;;;18.70;99.90;;;;;;5049811;28;20061;-77
2022/09/12 11:03:49;;;;;;;5.45;1.35;;;18.80;99.90;;;;;;5043719;28;19913;-77
2022/09/12 11:06:21;;;;;;;2.17;1.35;;;18.90;99.90;;;;;;5044399;28;20033;-77
2022/09/12 11:09:14;;;;;;;2.92;1.40;;;19.10;99.90;;;;;;5038518;28;20054;-77
2022/09/12 11:12:16;;;;;;;1.70;1.20;;;19.20;99.90;;;;;;5048486;28;20481;-77
2022/09/12 11:14:44;;;;;;;1.65;0.95;;;19.30;99.90;;;;;;5052914;28;20029;-77
2022/09/12 11:17:42;;;;;;;2.00;1.15;;;19.50;99.90;;;;;;5068559;28;20051;-77
2022/09/12 11:20:30;;;;;;;3.05;1.27;;;19.70;99.90;;;;;;5039774;28;20517;-77
2022/09/12 11:23:33;;;;;;;1.90;1.20;;;19.80;98.80;;;;;;5045872;28;20029;-77
2022/09/12 11:26:03;;;;;;;3.20;1.23;;;19.90;99.90;;;;;;5048174;28;20035;-76
2022/09/12 11:28:29;;;;;;;1.65;0.90;;;20.00;99.90;;;;;;5040368;28;20029;-76
2022/09/12 11:31:24;;;;;;;2.00;1.10;;;20.10;98.70;;;;;;5035304;28;20026;-76
2022/09/12 11:33:51;;;;;;;3.13;1.42;;;20.20;97.90;;;;;;5042217;28;20363;-77
2022/09/12 11:36:20;;;;;;;2.47;1.05;;;20.30;97.70;;;;;;5036349;28;20076;-76
2022/09/12 11:38:48;;;;;;;2.42;1.10;;;20.30;95.00;;;;;;5042837;28;20377;-76
2022/09/12 11:41:22;;;;;;;1.55;0.90;;;20.30;95.20;;;;;;5034961;28;20025;-77
2022/09/12 11:43:56;;;;;;;1.52;1.00;;;20.40;95.20;;;;;;5043597;28;20063;-77
2022/09/12 11:46:38;;;;;;;2.15;0.65;;;20.60;94.60;;;;;;5056162;28;20028;-73
2022/09/12 11:49:23;;;;;;;0.60;0.40;;;20.60;91.40;;;;;;5070812;28;20044;-72
2022/09/12 11:52:03;;;;;;;2.80;0.50;;;20.70;85.90;;;;;;5055393;28;20029;-74
2022/09/12 11:54:44;;;;;;;0.80;0.40;;;20.70;90.50;;;;;;5070764;28;20060;-73
2022/09/12 11:57:35;;;;;;;0.70;0.50;;;20.80;87.70;;;;;;5055376;28;20071;-75
2022/09/12 12:00:07;;;;;;;0.97;0.60;;;21.00;83.90;;;;;;5069730;28;20164;-76
2022/09/12 12:02:42;;;;;;;1.27;0.68;;;21.10;88.60;;;;;;5041932;28;20033;-73
2022/09/12 12:05:34;;;;;;;1.70;0.70;;;21.30;81.20;;;;;;5030938;28;20500;-73
2022/09/12 12:08:03;;;;;;;0.68;0.40;;;21.40;78.40;;;;;;5052821;28;20052;-73
2022/09/12 12:10:42;;;;;;;0.90;0.25;;;21.40;75.00;;;;;;5034488;28;20710;-73
2022/09/12 12:13:31;;;;;;;0.63;0.40;;;21.50;71.30;;;;;;5054917;28;20029;-73
2022/09/12 12:15:59;;;;;;;2.00;0.50;;;21.50;75.80;;;;;;5039703;28;20474;-74
2022/09/12 12:18:28;;;;;;;1.13;0.50;;;21.70;75.40;;;;;;5044414;28;20025;-73
2022/09/12 12:20:55;;;;;;;1.00;0.63;;;21.70;73.20;;;;;;5038964;28;20029;-73
2022/09/12 12:23:30;;;;;;;0.73;0.50;;;21.80;78.80;;;;;;5042063;28;20116;-74
2022/09/12 12:26:01;;;;;;;4.32;0.52;;;22.00;74.30;;;;;;5042067;28;20056;-73
2022/09/12 12:28:49;;;;;;;0.93;0.40;;;22.10;72.60;;;;;;5042169;28;20048;-72
2022/09/12 12:31:16;;;;;;;1.13;0.60;;;22.00;73.60;;;;;;5035464;28;20056;-72
2022/09/12 12:33:44;;;;;;;1.20;0.43;;;22.10;75.50;;;;;;5035273;28;20052;-72
2022/09/12 12:36:40;;;;;;;1.02;0.50;;;22.20;74.90;;;;;;5036044;28;20033;-72
2022/09/12 12:39:49;;;;;;;1.45;0.60;;;22.40;75.10;;;;;;5045431;28;20021;-72
2022/09/12 12:42:29;;;;;;;0.95;0.57;;;22.40;75.10;;;;;;5045472;28;20071;-72
2022/09/12 12:44:55;;;;;;;1.73;0.63;;;22.40;80.10;;;;;;5036497;28;20429;-72
2022/09/12 12:47:24;;;;;;;1.25;0.40;;;22.40;72.40;;;;;;5038681;28;20091;-72
2022/09/12 12:50:22;;;;;;;1.02;0.60;;;22.30;73.30;;;;;;5054374;28;20036;-70
2022/09/12 12:52:57;;;;;;;0.98;0.52;;;22.30;73.00;;;;;;5054396;28;20051;-71
2022/09/12 12:55:37;;;;;;;2.72;0.50;;;22.40;73.00;;;;;;5054199;28;20428;-72
2022/09/12 12:58:06;;;;;;;2.75;0.60;;;22.40;72.00;;;;;;5054132;28;20393;-71
2022/09/12 13:00:38;;;;;;;1.02;0.50;;;22.30;72.40;;;;;;5048502;28;20124;-70
2022/09/12 13:03:05;;;;;;;2.55;0.60;;;22.30;71.00;;;;;;5034573;28;20033;-74
2022/09/12 13:05:50;;;;;;;2.50;0.57;;;22.40;73.10;;;;;;5034827;28;20473;-74
2022/09/12 13:08:16;;;;;;;1.10;0.40;;;22.40;72.00;;;;;;5034845;28;20017;-74
2022/09/12 13:10:58;;;;;;;0.63;0.40;;;22.40;72.00;;;;;;5042607;28;20057;-74
2022/09/12 13:13:36;;;;;;;0.52;0.40;;;22.40;70.90;;;;;;5053962;28;20529;-73
2022/09/12 13:16:02;;;;;;;0.95;0.60;;;22.40;75.40;;;;;;5053775;28;20017;-73
2022/09/12 13:18:44;;;;;;;1.50;0.57;;;22.50;70.50;;;;;;5053354;28;20111;-73